Kydon — SWBZ — position and weather

sailwx.info

Track history (hours):
 
Tides and Currents Weather Stations Pressure Air Temp Water Temp Dewpoint Dewpoint Depression Visibility Wind Speed Wind Dir Waves Ship Positions

Kydon

Last reported at 2017-Apr-19 04:33 UTC. Time now 2017-Apr-28 10:32 UTC.
Position N 34°23' W 010°44'.
Warning: this ship's position is 9 days out of date.

Length 192 m; draft 5.4 m.

Type: Passenger vessel. MMSI: 239593000.

Date/timePositionNaut miles runAvg speedWind from/ knotsBaromVisibWave heightAir tempDewpointWater temp
2017-Apr-19 04:33N 34°23' W 010°44'121.8
2017-Apr-19 04:30N 34°24' W 010°43'4921.7
2017-Apr-19 02:13N 34°42' W 009°47'521.8
2017-Apr-19 02:00N 34°44' W 009°42'1121.7
2017-Apr-19 01:30N 34°49' W 009°30'1521.8
2017-Apr-19 00:49N 34°55' W 009°13'821.9
2017-Apr-19 00:26N 34°58' W 009°04'922.0
2017-Apr-19 00:00N 35°01' W 008°53'1122.0
2017-Apr-18 23:30N 35°06' W 008°41'1122.0
2017-Apr-18 23:00N 35°10' W 008°29'1122.1
2017-Apr-18 22:29N 35°15' W 008°16'1122.0
2017-Apr-18 21:59N 35°19' W 008°04'1122.2
2017-Apr-18 21:30N 35°23' W 007°51'1322.3
2017-Apr-18 20:54N 35°29' W 007°36'921.9
2017-Apr-18 20:29N 35°33' W 007°26'1321.9
2017-Apr-18 19:54N 35°38' W 007°12'922.2
2017-Apr-18 19:30N 35°41' W 007°01'1522.0
2017-Apr-18 18:49N 35°46' W 006°44'4221.1
2017-Apr-18 16:48N 35°57' W 005°53'721.9
2017-Apr-18 16:29N 35°57' W 005°45'1021.5
2017-Apr-18 16:00N 35°58' W 005°32'1121.0
2017-Apr-18 15:30N 36°02' W 005°20'1020.7
2017-Apr-18 15:00N 36°03' W 005°08'1121.7
2017-Apr-18 14:30N 36°05' W 004°54'28021.9
2017-Apr-18 01:42N 36°44' E 000°50'421.4
2017-Apr-18 01:30N 36°45' E 000°55'1621.4
2017-Apr-18 00:46N 36°48' E 001°15'621.4
2017-Apr-18 00:30N 36°50' E 001°21'1121.9
2017-Apr-18 00:00N 36°51' E 001°35'1122.1
2017-Apr-17 23:30N 36°52' E 001°48'1121.4
2017-Apr-17 23:00N 36°51' E 002°02'1121.5
2017-Apr-17 22:30N 36°55' E 002°14'1122.1
2017-Apr-17 22:00N 36°58' E 002°28'1122.0
2017-Apr-17 21:30N 36°60' E 002°41'1122.2
2017-Apr-17 21:00N 37°01' E 002°55'1222.2
2017-Apr-17 20:29N 37°03' E 003°09'1222.4
2017-Apr-17 19:58N 37°05' E 003°24'49620.5
2017-Apr-16 19:49N 36°27' E 013°40'720.7
2017-Apr-16 19:29N 36°24' E 013°48'613.3
2017-Apr-16 19:00N 36°21' E 013°55'918.3
2017-Apr-16 18:30N 36°17' E 014°05'1020.6
2017-Apr-16 18:00N 36°12' E 014°17'1020.7
2017-Apr-16 17:30N 36°06' E 014°27'1020.1
2017-Apr-16 17:00N 35°59' E 014°37'5 9.9
2017-Apr-16 16:30N 35°56' E 014°41'5 9.9
2017-Apr-16 16:00N 35°53' E 014°46'0 0.2
2017-Apr-16 15:30N 35°53' E 014°46'0 0.1
2017-Apr-16 15:00N 35°53' E 014°46'0 0.0
2017-Apr-16 14:00N 35°53' E 014°46'0 0.0
2017-Apr-16 13:30N 35°53' E 014°46'0 0.1
2017-Apr-16 12:59N 35°53' E 014°46'0 0.1
2017-Apr-16 12:30N 35°53' E 014°46'0 0.1
2017-Apr-16 12:00N 35°53' E 014°46'0 0.0
2017-Apr-16 11:29N 35°53' E 014°46'0 0.0
2017-Apr-16 11:00N 35°53' E 014°46'0 0.1
2017-Apr-16 10:30N 35°53' E 014°46'0 0.0
2017-Apr-16 10:00N 35°53' E 014°46'0 0.0
2017-Apr-16 09:30N 35°53' E 014°46'0 0.0
2017-Apr-16 09:00N 35°53' E 014°46'0 0.0
2017-Apr-16 08:30N 35°53' E 014°46'0 0.0
2017-Apr-16 08:00N 35°53' E 014°46'0 0.0
2017-Apr-16 07:30N 35°53' E 014°46'0 0.0
2017-Apr-16 07:00N 35°53' E 014°46'0 0.1
2017-Apr-16 06:30N 35°53' E 014°46'0 0.0
2017-Apr-16 06:00N 35°53' E 014°46'0 0.0
2017-Apr-16 05:30N 35°53' E 014°46'0 0.0
2017-Apr-16 05:00N 35°53' E 014°46'0 0.0
2017-Apr-16 04:30N 35°53' E 014°46'0 0.0
2017-Apr-16 04:00N 35°53' E 014°46'0 0.0
2017-Apr-16 03:30N 35°53' E 014°46'0 0.0
2017-Apr-16 03:00N 35°53' E 014°46'0 0.0
2017-Apr-16 02:30N 35°53' E 014°46'0 0.0
2017-Apr-16 02:00N 35°53' E 014°46'0 0.0
2017-Apr-16 01:30N 35°53' E 014°46'0 0.0
2017-Apr-16 01:00N 35°53' E 014°46'0 0.0
2017-Apr-16 00:30N 35°53' E 014°46'0 0.0
2017-Apr-16 00:00N 35°53' E 014°46'0 0.0
2017-Apr-15 23:30N 35°53' E 014°46'0 0.0
2017-Apr-15 23:00N 35°53' E 014°46'0 0.0
2017-Apr-15 22:30N 35°53' E 014°46'0 0.0
2017-Apr-15 22:00N 35°53' E 014°46'0 0.0
2017-Apr-15 21:30N 35°53' E 014°46'0 0.0
2017-Apr-15 21:00N 35°53' E 014°46'0 0.0
2017-Apr-15 20:30N 35°53' E 014°46'0 0.0
2017-Apr-15 20:00N 35°53' E 014°46'0 0.0
2017-Apr-15 19:30N 35°53' E 014°46'0 0.0
2017-Apr-15 19:00N 35°53' E 014°46'0 0.0
2017-Apr-15 18:30N 35°53' E 014°46'0 0.0
2017-Apr-15 18:00N 35°53' E 014°46'0 0.0
2017-Apr-15 17:30N 35°53' E 014°46'0 0.0
2017-Apr-15 17:00N 35°53' E 014°46'0 0.1
2017-Apr-15 16:30N 35°53' E 014°46'2 4.9
2017-Apr-15 16:00N 35°54' E 014°49'917.9
2017-Apr-15 15:31N 35°56' E 014°59'1121.8
2017-Apr-15 15:00N 35°58' E 015°13'1121.7
2017-Apr-15 14:30N 35°58' E 015°26'2221.4
2017-Apr-15 13:30N 35°60' E 015°53'1221.4
2017-Apr-15 12:55N 36°00' E 016°08'1121.5
2017-Apr-15 12:25N 36°01' E 016°21'921.5
2017-Apr-15 11:59N 36°02' E 016°33'34819.5
2017-Apr-14 18:12N 37°16' E 023°36'1122.0
2017-Apr-14 17:42N 37°26' E 023°39'421.8
2017-Apr-14 17:30N 37°30' E 023°40'1121.5
2017-Apr-14 17:00N 37°41' E 023°41'918.2
2017-Apr-14 16:30N 37°49' E 023°37'714.6
2017-Apr-14 16:01N 37°57' E 023°36'2 4.2
2017-Apr-14 15:30N 37°58' E 023°34'0 0.0
2017-Apr-14 15:01N 37°58' E 023°34'0 0.0
2017-Apr-14 14:30N 37°58' E 023°34'0 0.0
2017-Apr-14 13:30N 37°58' E 023°34'0 0.0
2017-Apr-14 13:00N 37°58' E 023°34'0 0.0
2017-Apr-14 12:30N 37°58' E 023°34'0 0.0
2017-Apr-14 12:00N 37°58' E 023°34'0 0.0
2017-Apr-14 11:30N 37°58' E 023°34'0 0.0
2017-Apr-14 11:01N 37°58' E 023°34'0 0.0
2017-Apr-14 10:31N 37°58' E 023°34'0 0.0
2017-Apr-14 10:00N 37°58' E 023°34'0 0.0
2017-Apr-14 09:30N 37°58' E 023°34'0 0.0
2017-Apr-14 09:00N 37°58' E 023°34'0 0.0
2017-Apr-14 08:31N 37°58' E 023°34'0 0.0
2017-Apr-14 08:00N 37°58' E 023°34'0 0.0
2017-Apr-14 07:31N 37°58' E 023°34'0 0.0
2017-Apr-14 07:00N 37°58' E 023°34'0 0.0
2017-Apr-14 06:30N 37°58' E 023°34'0 0.0
2017-Apr-14 06:00N 37°58' E 023°34'0 0.0
2017-Apr-14 05:30N 37°58' E 023°34'0 0.0
2017-Apr-14 05:01N 37°58' E 023°34'0 0.0
2017-Apr-14 04:30N 37°58' E 023°34'0 0.0
2017-Apr-14 04:01N 37°58' E 023°34'0 0.0
2017-Apr-14 03:30N 37°58' E 023°34'0 0.0
2017-Apr-14 03:01N 37°58' E 023°34'0 0.0
2017-Apr-14 02:30N 37°58' E 023°34'0 0.0
2017-Apr-14 02:01N 37°58' E 023°34'0 0.0
2017-Apr-14 01:31N 37°58' E 023°34'0 0.0
2017-Apr-14 01:01N 37°58' E 023°34'0 0.0
2017-Apr-14 00:30N 37°58' E 023°34'0 0.0
2017-Apr-14 00:01N 37°58' E 023°34'0 0.0
2017-Apr-13 23:30N 37°58' E 023°34'0 0.0
2017-Apr-13 23:01N 37°58' E 023°34'0 0.0
2017-Apr-13 22:30N 37°58' E 023°34'0 0.0
2017-Apr-13 22:01N 37°58' E 023°34'0 0.0
2017-Apr-13 21:30N 37°58' E 023°34'0 0.0
2017-Apr-13 21:01N 37°58' E 023°34'0 0.0
2017-Apr-13 20:30N 37°58' E 023°34'0 0.0
2017-Apr-13 20:00N 37°58' E 023°34'0 0.0
2017-Apr-13 19:31N 37°58' E 023°34'0 0.0
2017-Apr-13 19:00N 37°58' E 023°34'0 0.0
2017-Apr-13 18:30N 37°58' E 023°34'0 0.0
2017-Apr-13 18:01N 37°58' E 023°34'0 0.0
2017-Apr-13 17:30N 37°58' E 023°34'0 0.0
2017-Apr-13 17:00N 37°58' E 023°34'0 0.0
2017-Apr-13 16:30N 37°58' E 023°34'0 0.0
2017-Apr-13 16:00N 37°58' E 023°34'0 0.0
2017-Apr-13 15:30N 37°58' E 023°34'0 0.0
2017-Apr-13 15:00N 37°58' E 023°34'0 0.0
2017-Apr-13 14:30N 37°58' E 023°34'0 0.0
2017-Apr-13 13:30N 37°58' E 023°34'0 0.0
2017-Apr-13 13:00N 37°58' E 023°34'0 0.0
2017-Apr-13 12:30N 37°58' E 023°34'0 0.0
2017-Apr-13 12:00N 37°58' E 023°34'0 0.0
2017-Apr-13 11:30N 37°58' E 023°34'0 0.0
2017-Apr-13 11:00N 37°58' E 023°34'0 0.0
2017-Apr-13 10:30N 37°58' E 023°34'0 0.0
2017-Apr-13 10:00N 37°58' E 023°34'0 0.0
2017-Apr-13 09:30N 37°58' E 023°34'0 0.0
2017-Apr-13 09:00N 37°58' E 023°34'0 0.0
2017-Apr-13 08:30N 37°58' E 023°34'0 0.0
2017-Apr-13 08:00N 37°58' E 023°34'0 0.0
2017-Apr-13 07:30N 37°58' E 023°34'0 0.0
2017-Apr-13 07:00N 37°58' E 023°34'0 0.0
2017-Apr-13 06:30N 37°58' E 023°34'0 0.0
2017-Apr-13 06:00N 37°58' E 023°34'0 0.0
2017-Apr-13 05:30N 37°58' E 023°34'0 0.0
2017-Apr-13 05:00N 37°58' E 023°34'0 0.0
2017-Apr-13 04:30N 37°58' E 023°34'0 0.0
2017-Apr-13 04:00N 37°58' E 023°34'0 0.0
2017-Apr-13 03:30N 37°58' E 023°34'0 0.0
2017-Apr-13 03:00N 37°58' E 023°34'0 0.0
2017-Apr-13 02:30N 37°58' E 023°34'0 0.0
2017-Apr-13 02:00N 37°58' E 023°34'0 0.0
2017-Apr-13 01:30N 37°58' E 023°34'0 0.0
2017-Apr-13 01:00N 37°58' E 023°34'0 0.0
2017-Apr-13 00:30N 37°58' E 023°34'0 0.0
2017-Apr-13 00:00N 37°58' E 023°34'0 0.0
2017-Apr-12 23:30N 37°58' E 023°34'0 0.0
2017-Apr-12 23:00N 37°58' E 023°34'0 0.0
2017-Apr-12 22:30N 37°58' E 023°34'0 0.0
2017-Apr-12 22:00N 37°58' E 023°34'0 0.0
2017-Apr-12 21:30N 37°58' E 023°34'0 0.0
2017-Apr-12 21:00N 37°58' E 023°34'0 0.0
2017-Apr-12 20:30N 37°58' E 023°34'0 0.0
2017-Apr-12 20:00N 37°58' E 023°34'0 0.0
2017-Apr-12 19:30N 37°58' E 023°34'0 0.0
2017-Apr-12 19:00N 37°58' E 023°34'0 0.0
2017-Apr-12 18:30N 37°58' E 023°34'0 0.0
2017-Apr-12 18:00N 37°58' E 023°34'0 0.0
2017-Apr-12 17:30N 37°58' E 023°34'0 0.0
2017-Apr-12 17:00N 37°58' E 023°34'0 0.0
2017-Apr-12 16:30N 37°58' E 023°34'0 0.0
2017-Apr-12 16:00N 37°58' E 023°34'0 0.0
2017-Apr-12 15:30N 37°58' E 023°34'0 0.0
2017-Apr-12 15:00N 37°58' E 023°34'0 0.0
2017-Apr-12 14:00N 37°58' E 023°34'0 0.0
2017-Apr-12 13:30N 37°58' E 023°34'0 0.0
2017-Apr-12 13:00N 37°58' E 023°34'0 0.0
2017-Apr-12 12:30N 37°58' E 023°34'0 0.0
2017-Apr-12 12:00N 37°58' E 023°34'0 0.0
2017-Apr-12 11:30N 37°58' E 023°34'0 0.0
2017-Apr-12 11:00N 37°58' E 023°34'0 0.0
2017-Apr-12 10:30N 37°58' E 023°34'0 0.0
2017-Apr-12 10:00N 37°58' E 023°34'0 0.0
2017-Apr-12 09:30N 37°58' E 023°34'0 0.0
2017-Apr-12 09:00N 37°58' E 023°34'0 0.0
2017-Apr-12 08:30N 37°58' E 023°34'0 0.0
2017-Apr-12 08:00N 37°58' E 023°34'0 0.0
2017-Apr-12 07:30N 37°58' E 023°34'0 0.0
2017-Apr-12 07:00N 37°58' E 023°34'0 0.0
2017-Apr-12 06:30N 37°58' E 023°34'0 0.0
2017-Apr-12 06:00N 37°58' E 023°34'0 0.0
2017-Apr-12 05:30N 37°58' E 023°34'0 0.0
2017-Apr-12 05:00N 37°58' E 023°34'0 0.0
2017-Apr-12 04:30N 37°58' E 023°34'0 0.0
2017-Apr-12 04:00N 37°58' E 023°34'0 0.0
2017-Apr-12 03:30N 37°58' E 023°34'0 0.0
2017-Apr-12 03:00N 37°58' E 023°34'0 0.0
2017-Apr-12 02:30N 37°58' E 023°34'0 0.0
2017-Apr-12 02:00N 37°58' E 023°34'0 0.0
2017-Apr-12 01:30N 37°58' E 023°34'0 0.0
2017-Apr-12 01:00N 37°58' E 023°34'0 0.0
2017-Apr-12 00:30N 37°58' E 023°34'0 0.0
2017-Apr-12 00:00N 37°58' E 023°34'0 0.0
2017-Apr-11 23:30N 37°58' E 023°34'0 0.0
2017-Apr-11 23:00N 37°58' E 023°34'0 0.0
2017-Apr-11 22:30N 37°58' E 023°34'0 0.0
2017-Apr-11 21:59N 37°58' E 023°34'0 0.0
2017-Apr-11 21:30N 37°58' E 023°34'0 0.0
2017-Apr-11 21:00N 37°58' E 023°34'0 0.0
2017-Apr-11 20:30N 37°58' E 023°34'0 0.0
2017-Apr-11 20:00N 37°58' E 023°34'0 0.0
2017-Apr-11 19:25N 37°58' E 023°34'0 0.0
2017-Apr-11 19:00N 37°58' E 023°34'0 0.0
2017-Apr-11 18:21N 37°58' E 023°34'0 0.0
2017-Apr-11 13:40N 37°58' E 023°34'0 0.0
2017-Apr-11 13:30N 37°58' E 023°34'0 0.0
2017-Apr-11 13:00N 37°58' E 023°34'0 0.0
2017-Apr-11 12:30N 37°58' E 023°34'0 0.0
2017-Apr-11 12:00N 37°58' E 023°34'0 0.0
2017-Apr-11 11:30N 37°58' E 023°34'0 0.0
2017-Apr-11 11:00N 37°58' E 023°34'0 0.0
2017-Apr-11 10:30N 37°58' E 023°34'0 0.0
2017-Apr-11 10:00N 37°58' E 023°34'0 0.0
2017-Apr-11 09:30N 37°58' E 023°34'0 0.0
2017-Apr-11 09:00N 37°58' E 023°34'0 0.0
2017-Apr-11 08:30N 37°58' E 023°34'0 0.0
2017-Apr-11 08:00N 37°58' E 023°34'0 0.0
2017-Apr-10 09:12N 37°58' E 023°34'0 0.0
2017-Apr-10 09:01N 37°58' E 023°34'0 0.0
2017-Apr-10 08:31N 37°58' E 023°34'0 0.0
2017-Apr-10 08:00N 37°58' E 023°34'0 0.0
2017-Apr-10 07:30N 37°58' E 023°34'0 0.0
2017-Apr-10 07:01N 37°58' E 023°34'0 0.0
2017-Apr-10 06:30N 37°58' E 023°34'0 0.0
2017-Apr-10 06:00N 37°58' E 023°34'0 0.0
2017-Apr-10 05:31N 37°58' E 023°34'0 0.0
2017-Apr-10 05:01N 37°58' E 023°34'0 0.0
2017-Apr-10 04:31N 37°58' E 023°34'0 0.0
2017-Apr-10 04:01N 37°58' E 023°34'0 0.0
2017-Apr-10 03:30N 37°58' E 023°34'0 0.0
2017-Apr-10 03:01N 37°58' E 023°34'0 0.0
2017-Apr-10 02:30N 37°58' E 023°34'0 0.0
2017-Apr-10 02:00N 37°58' E 023°34'0 0.0
2017-Apr-10 01:31N 37°58' E 023°34'0 0.0
2017-Apr-10 01:00N 37°58' E 023°34'0 0.0
2017-Apr-10 00:31N 37°58' E 023°34'0 0.0
2017-Apr-10 00:01N 37°58' E 023°34'0 0.0
2017-Apr-09 23:31N 37°58' E 023°34'0 0.0
2017-Apr-09 23:01N 37°58' E 023°34'0 0.0
2017-Apr-09 22:31N 37°58' E 023°34'0 0.0
2017-Apr-09 22:01N 37°58' E 023°34'0 0.0
2017-Apr-09 21:30N 37°58' E 023°34'0 0.0
2017-Apr-09 21:01N 37°58' E 023°34'0 0.0
2017-Apr-09 20:31N 37°58' E 023°34'0 0.0
2017-Apr-09 20:01N 37°58' E 023°34'0 0.0
2017-Apr-09 19:30N 37°58' E 023°34'0 0.0
2017-Apr-09 19:00N 37°58' E 023°34'0 0.0
2017-Apr-09 18:31N 37°58' E 023°34'0 0.0
2017-Apr-09 18:00N 37°58' E 023°34'0 0.0
2017-Apr-09 17:31N 37°58' E 023°34'0 0.0
2017-Apr-09 17:00N 37°58' E 023°34'0 0.0
2017-Apr-09 16:30N 37°58' E 023°34'0 0.0
2017-Apr-09 13:51N 37°58' E 023°34'0 0.0
2017-Apr-09 13:16N 37°58' E 023°34'0 0.0
2017-Apr-09 13:00N 37°58' E 023°34'0 0.0
2017-Apr-09 12:30N 37°58' E 023°34'0 0.0
2017-Apr-09 12:00N 37°58' E 023°34'0 0.0
2017-Apr-09 11:30N 37°58' E 023°34'0 0.0
2017-Apr-09 11:00N 37°58' E 023°34'0 0.0
2017-Apr-09 10:30N 37°58' E 023°34'0 0.0
2017-Apr-09 10:00N 37°58' E 023°34'0 0.0
2017-Apr-09 09:30N 37°58' E 023°34'0 0.0
2017-Apr-09 09:00N 37°58' E 023°34'0 0.0
2017-Apr-09 08:31N 37°58' E 023°34'0 0.0
2017-Apr-09 08:00N 37°58' E 023°34'0 0.0
2017-Apr-09 07:30N 37°58' E 023°34'0 0.0
2017-Apr-09 07:00N 37°58' E 023°34'0 0.0
2017-Apr-09 06:30N 37°58' E 023°34'0 0.0
2017-Apr-09 06:00N 37°58' E 023°34'0 0.0
2017-Apr-09 05:30N 37°58' E 023°34'0 0.0
2017-Apr-09 05:00N 37°58' E 023°34'  
Track history (hours):
 
Tides and Currents Weather Stations Pressure Air Temp Water Temp Dewpoint Dewpoint Depression Visibility Wind Speed Wind Dir Waves Ship Positions

Kydon

Last reported at 2017-Apr-19 04:33 UTC. Time now 2017-Apr-28 10:32 UTC.
Position N 34°23' W 010°44'.
Warning: this ship's position is 9 days out of date.

Length 192 m; draft 5.4 m.

Type: Passenger vessel. MMSI: 239593000.

Date/timePositionNaut miles runAvg speedWind from/ knotsBaromVisibWave heightAir tempDewpointWater temp
2017-Apr-19 04:33N 34°23' W 010°44'121.8
2017-Apr-19 04:30N 34°24' W 010°43'4921.7
2017-Apr-19 02:13N 34°42' W 009°47'521.8
2017-Apr-19 02:00N 34°44' W 009°42'1121.7
2017-Apr-19 01:30N 34°49' W 009°30'1521.8
2017-Apr-19 00:49N 34°55' W 009°13'821.9
2017-Apr-19 00:26N 34°58' W 009°04'922.0
2017-Apr-19 00:00N 35°01' W 008°53'1122.0
2017-Apr-18 23:30N 35°06' W 008°41'1122.0
2017-Apr-18 23:00N 35°10' W 008°29'1122.1
2017-Apr-18 22:29N 35°15' W 008°16'1122.0
2017-Apr-18 21:59N 35°19' W 008°04'1122.2
2017-Apr-18 21:30N 35°23' W 007°51'1322.3
2017-Apr-18 20:54N 35°29' W 007°36'921.9
2017-Apr-18 20:29N 35°33' W 007°26'1321.9
2017-Apr-18 19:54N 35°38' W 007°12'922.2
2017-Apr-18 19:30N 35°41' W 007°01'1522.0
2017-Apr-18 18:49N 35°46' W 006°44'4221.1
2017-Apr-18 16:48N 35°57' W 005°53'721.9
2017-Apr-18 16:29N 35°57' W 005°45'1021.5
2017-Apr-18 16:00N 35°58' W 005°32'1121.0
2017-Apr-18 15:30N 36°02' W 005°20'1020.7
2017-Apr-18 15:00N 36°03' W 005°08'1121.7
2017-Apr-18 14:30N 36°05' W 004°54'28021.9
2017-Apr-18 01:42N 36°44' E 000°50'421.4
2017-Apr-18 01:30N 36°45' E 000°55'1621.4
2017-Apr-18 00:46N 36°48' E 001°15'621.4
2017-Apr-18 00:30N 36°50' E 001°21'1121.9
2017-Apr-18 00:00N 36°51' E 001°35'1122.1
2017-Apr-17 23:30N 36°52' E 001°48'1121.4
2017-Apr-17 23:00N 36°51' E 002°02'1121.5
2017-Apr-17 22:30N 36°55' E 002°14'1122.1
2017-Apr-17 22:00N 36°58' E 002°28'1122.0
2017-Apr-17 21:30N 36°60' E 002°41'1122.2
2017-Apr-17 21:00N 37°01' E 002°55'1222.2
2017-Apr-17 20:29N 37°03' E 003°09'1222.4
2017-Apr-17 19:58N 37°05' E 003°24'49620.5
2017-Apr-16 19:49N 36°27' E 013°40'720.7
2017-Apr-16 19:29N 36°24' E 013°48'613.3
2017-Apr-16 19:00N 36°21' E 013°55'918.3
2017-Apr-16 18:30N 36°17' E 014°05'1020.6
2017-Apr-16 18:00N 36°12' E 014°17'1020.7
2017-Apr-16 17:30N 36°06' E 014°27'1020.1
2017-Apr-16 17:00N 35°59' E 014°37'5 9.9
2017-Apr-16 16:30N 35°56' E 014°41'5 9.9
2017-Apr-16 16:00N 35°53' E 014°46'0 0.2
2017-Apr-16 15:30N 35°53' E 014°46'0 0.1
2017-Apr-16 15:00N 35°53' E 014°46'0 0.0
2017-Apr-16 14:00N 35°53' E 014°46'0 0.0
2017-Apr-16 13:30N 35°53' E 014°46'0 0.1
2017-Apr-16 12:59N 35°53' E 014°46'0 0.1
2017-Apr-16 12:30N 35°53' E 014°46'0 0.1
2017-Apr-16 12:00N 35°53' E 014°46'0 0.0
2017-Apr-16 11:29N 35°53' E 014°46'0 0.0
2017-Apr-16 11:00N 35°53' E 014°46'0 0.1
2017-Apr-16 10:30N 35°53' E 014°46'0 0.0
2017-Apr-16 10:00N 35°53' E 014°46'0 0.0
2017-Apr-16 09:30N 35°53' E 014°46'0 0.0
2017-Apr-16 09:00N 35°53' E 014°46'0 0.0
2017-Apr-16 08:30N 35°53' E 014°46'0 0.0
2017-Apr-16 08:00N 35°53' E 014°46'0 0.0
2017-Apr-16 07:30N 35°53' E 014°46'0 0.0
2017-Apr-16 07:00N 35°53' E 014°46'0 0.1
2017-Apr-16 06:30N 35°53' E 014°46'0 0.0
2017-Apr-16 06:00N 35°53' E 014°46'0 0.0
2017-Apr-16 05:30N 35°53' E 014°46'0 0.0
2017-Apr-16 05:00N 35°53' E 014°46'0 0.0
2017-Apr-16 04:30N 35°53' E 014°46'0 0.0
2017-Apr-16 04:00N 35°53' E 014°46'0 0.0
2017-Apr-16 03:30N 35°53' E 014°46'0 0.0
2017-Apr-16 03:00N 35°53' E 014°46'0 0.0
2017-Apr-16 02:30N 35°53' E 014°46'0 0.0
2017-Apr-16 02:00N 35°53' E 014°46'0 0.0
2017-Apr-16 01:30N 35°53' E 014°46'0 0.0
2017-Apr-16 01:00N 35°53' E 014°46'0 0.0
2017-Apr-16 00:30N 35°53' E 014°46'0 0.0
2017-Apr-16 00:00N 35°53' E 014°46'0 0.0
2017-Apr-15 23:30N 35°53' E 014°46'0 0.0
2017-Apr-15 23:00N 35°53' E 014°46'0 0.0
2017-Apr-15 22:30N 35°53' E 014°46'0 0.0
2017-Apr-15 22:00N 35°53' E 014°46'0 0.0
2017-Apr-15 21:30N 35°53' E 014°46'0 0.0
2017-Apr-15 21:00N 35°53' E 014°46'0 0.0
2017-Apr-15 20:30N 35°53' E 014°46'0 0.0
2017-Apr-15 20:00N 35°53' E 014°46'0 0.0
2017-Apr-15 19:30N 35°53' E 014°46'0 0.0
2017-Apr-15 19:00N 35°53' E 014°46'0 0.0
2017-Apr-15 18:30N 35°53' E 014°46'0 0.0
2017-Apr-15 18:00N 35°53' E 014°46'0 0.0
2017-Apr-15 17:30N 35°53' E 014°46'0 0.0
2017-Apr-15 17:00N 35°53' E 014°46'0 0.1
2017-Apr-15 16:30N 35°53' E 014°46'2 4.9
2017-Apr-15 16:00N 35°54' E 014°49'917.9
2017-Apr-15 15:31N 35°56' E 014°59'1121.8
2017-Apr-15 15:00N 35°58' E 015°13'1121.7
2017-Apr-15 14:30N 35°58' E 015°26'2221.4
2017-Apr-15 13:30N 35°60' E 015°53'1221.4
2017-Apr-15 12:55N 36°00' E 016°08'1121.5
2017-Apr-15 12:25N 36°01' E 016°21'921.5
2017-Apr-15 11:59N 36°02' E 016°33'34819.5
2017-Apr-14 18:12N 37°16' E 023°36'1122.0
2017-Apr-14 17:42N 37°26' E 023°39'421.8
2017-Apr-14 17:30N 37°30' E 023°40'1121.5
2017-Apr-14 17:00N 37°41' E 023°41'918.2
2017-Apr-14 16:30N 37°49' E 023°37'714.6
2017-Apr-14 16:01N 37°57' E 023°36'2 4.2
2017-Apr-14 15:30N 37°58' E 023°34'0 0.0
2017-Apr-14 15:01N 37°58' E 023°34'0 0.0
2017-Apr-14 14:30N 37°58' E 023°34'0 0.0
2017-Apr-14 13:30N 37°58' E 023°34'0 0.0
2017-Apr-14 13:00N 37°58' E 023°34'0 0.0
2017-Apr-14 12:30N 37°58' E 023°34'0 0.0
2017-Apr-14 12:00N 37°58' E 023°34'0 0.0
2017-Apr-14 11:30N 37°58' E 023°34'0 0.0
2017-Apr-14 11:01N 37°58' E 023°34'0 0.0
2017-Apr-14 10:31N 37°58' E 023°34'0 0.0
2017-Apr-14 10:00N 37°58' E 023°34'0 0.0
2017-Apr-14 09:30N 37°58' E 023°34'0 0.0
2017-Apr-14 09:00N 37°58' E 023°34'0 0.0
2017-Apr-14 08:31N 37°58' E 023°34'0 0.0
2017-Apr-14 08:00N 37°58' E 023°34'0 0.0
2017-Apr-14 07:31N 37°58' E 023°34'0 0.0
2017-Apr-14 07:00N 37°58' E 023°34'0 0.0
2017-Apr-14 06:30N 37°58' E 023°34'0 0.0
2017-Apr-14 06:00N 37°58' E 023°34'0 0.0
2017-Apr-14 05:30N 37°58' E 023°34'0 0.0
2017-Apr-14 05:01N 37°58' E 023°34'0 0.0
2017-Apr-14 04:30N 37°58' E 023°34'0 0.0
2017-Apr-14 04:01N 37°58' E 023°34'0 0.0
2017-Apr-14 03:30N 37°58' E 023°34'0 0.0
2017-Apr-14 03:01N 37°58' E 023°34'0 0.0
2017-Apr-14 02:30N 37°58' E 023°34'0 0.0
2017-Apr-14 02:01N 37°58' E 023°34'0 0.0
2017-Apr-14 01:31N 37°58' E 023°34'0 0.0
2017-Apr-14 01:01N 37°58' E 023°34'0 0.0
2017-Apr-14 00:30N 37°58' E 023°34'0 0.0
2017-Apr-14 00:01N 37°58' E 023°34'0 0.0
2017-Apr-13 23:30N 37°58' E 023°34'0 0.0
2017-Apr-13 23:01N 37°58' E 023°34'0 0.0
2017-Apr-13 22:30N 37°58' E 023°34'0 0.0
2017-Apr-13 22:01N 37°58' E 023°34'0 0.0
2017-Apr-13 21:30N 37°58' E 023°34'0 0.0
2017-Apr-13 21:01N 37°58' E 023°34'0 0.0
2017-Apr-13 20:30N 37°58' E 023°34'0 0.0
2017-Apr-13 20:00N 37°58' E 023°34'0 0.0
2017-Apr-13 19:31N 37°58' E 023°34'0 0.0
2017-Apr-13 19:00N 37°58' E 023°34'0 0.0
2017-Apr-13 18:30N 37°58' E 023°34'0 0.0
2017-Apr-13 18:01N 37°58' E 023°34'0 0.0
2017-Apr-13 17:30N 37°58' E 023°34'0 0.0
2017-Apr-13 17:00N 37°58' E 023°34'0 0.0
2017-Apr-13 16:30N 37°58' E 023°34'0 0.0
2017-Apr-13 16:00N 37°58' E 023°34'0 0.0
2017-Apr-13 15:30N 37°58' E 023°34'0 0.0
2017-Apr-13 15:00N 37°58' E 023°34'0 0.0
2017-Apr-13 14:30N 37°58' E 023°34'0 0.0
2017-Apr-13 13:30N 37°58' E 023°34'0 0.0
2017-Apr-13 13:00N 37°58' E 023°34'0 0.0
2017-Apr-13 12:30N 37°58' E 023°34'0 0.0
2017-Apr-13 12:00N 37°58' E 023°34'0 0.0
2017-Apr-13 11:30N 37°58' E 023°34'0 0.0
2017-Apr-13 11:00N 37°58' E 023°34'0 0.0
2017-Apr-13 10:30N 37°58' E 023°34'0 0.0
2017-Apr-13 10:00N 37°58' E 023°34'0 0.0
2017-Apr-13 09:30N 37°58' E 023°34'0 0.0
2017-Apr-13 09:00N 37°58' E 023°34'0 0.0
2017-Apr-13 08:30N 37°58' E 023°34'0 0.0
2017-Apr-13 08:00N 37°58' E 023°34'0 0.0
2017-Apr-13 07:30N 37°58' E 023°34'0 0.0
2017-Apr-13 07:00N 37°58' E 023°34'0 0.0
2017-Apr-13 06:30N 37°58' E 023°34'0 0.0
2017-Apr-13 06:00N 37°58' E 023°34'0 0.0
2017-Apr-13 05:30N 37°58' E 023°34'0 0.0
2017-Apr-13 05:00N 37°58' E 023°34'0 0.0
2017-Apr-13 04:30N 37°58' E 023°34'0 0.0
2017-Apr-13 04:00N 37°58' E 023°34'0 0.0
2017-Apr-13 03:30N 37°58' E 023°34'0 0.0
2017-Apr-13 03:00N 37°58' E 023°34'0 0.0
2017-Apr-13 02:30N 37°58' E 023°34'0 0.0
2017-Apr-13 02:00N 37°58' E 023°34'0 0.0
2017-Apr-13 01:30N 37°58' E 023°34'0 0.0
2017-Apr-13 01:00N 37°58' E 023°34'0 0.0
2017-Apr-13 00:30N 37°58' E 023°34'0 0.0
2017-Apr-13 00:00N 37°58' E 023°34'0 0.0
2017-Apr-12 23:30N 37°58' E 023°34'0 0.0
2017-Apr-12 23:00N 37°58' E 023°34'0 0.0
2017-Apr-12 22:30N 37°58' E 023°34'0 0.0
2017-Apr-12 22:00N 37°58' E 023°34'0 0.0
2017-Apr-12 21:30N 37°58' E 023°34'0 0.0
2017-Apr-12 21:00N 37°58' E 023°34'0 0.0
2017-Apr-12 20:30N 37°58' E 023°34'0 0.0
2017-Apr-12 20:00N 37°58' E 023°34'0 0.0
2017-Apr-12 19:30N 37°58' E 023°34'0 0.0
2017-Apr-12 19:00N 37°58' E 023°34'0 0.0
2017-Apr-12 18:30N 37°58' E 023°34'0 0.0
2017-Apr-12 18:00N 37°58' E 023°34'0 0.0
2017-Apr-12 17:30N 37°58' E 023°34'0 0.0
2017-Apr-12 17:00N 37°58' E 023°34'0 0.0
2017-Apr-12 16:30N 37°58' E 023°34'0 0.0
2017-Apr-12 16:00N 37°58' E 023°34'0 0.0
2017-Apr-12 15:30N 37°58' E 023°34'0 0.0
2017-Apr-12 15:00N 37°58' E 023°34'0 0.0
2017-Apr-12 14:00N 37°58' E 023°34'0 0.0
2017-Apr-12 13:30N 37°58' E 023°34'0 0.0
2017-Apr-12 13:00N 37°58' E 023°34'0 0.0
2017-Apr-12 12:30N 37°58' E 023°34'0 0.0
2017-Apr-12 12:00N 37°58' E 023°34'0 0.0
2017-Apr-12 11:30N 37°58' E 023°34'0 0.0
2017-Apr-12 11:00N 37°58' E 023°34'0 0.0
2017-Apr-12 10:30N 37°58' E 023°34'0 0.0
2017-Apr-12 10:00N 37°58' E 023°34'0 0.0
2017-Apr-12 09:30N 37°58' E 023°34'0 0.0
2017-Apr-12 09:00N 37°58' E 023°34'0 0.0
2017-Apr-12 08:30N 37°58' E 023°34'0 0.0
2017-Apr-12 08:00N 37°58' E 023°34'0 0.0
2017-Apr-12 07:30N 37°58' E 023°34'0 0.0
2017-Apr-12 07:00N 37°58' E 023°34'0 0.0
2017-Apr-12 06:30N 37°58' E 023°34'0 0.0
2017-Apr-12 06:00N 37°58' E 023°34'0 0.0
2017-Apr-12 05:30N 37°58' E 023°34'0 0.0
2017-Apr-12 05:00N 37°58' E 023°34'0 0.0
2017-Apr-12 04:30N 37°58' E 023°34'0 0.0
2017-Apr-12 04:00N 37°58' E 023°34'0 0.0
2017-Apr-12 03:30N 37°58' E 023°34'0 0.0
2017-Apr-12 03:00N 37°58' E 023°34'0 0.0
2017-Apr-12 02:30N 37°58' E 023°34'0 0.0
2017-Apr-12 02:00N 37°58' E 023°34'0 0.0
2017-Apr-12 01:30N 37°58' E 023°34'0 0.0
2017-Apr-12 01:00N 37°58' E 023°34'0 0.0
2017-Apr-12 00:30N 37°58' E 023°34'0 0.0
2017-Apr-12 00:00N 37°58' E 023°34'0 0.0
2017-Apr-11 23:30N 37°58' E 023°34'0 0.0
2017-Apr-11 23:00N 37°58' E 023°34'0 0.0
2017-Apr-11 22:30N 37°58' E 023°34'0 0.0
2017-Apr-11 21:59N 37°58' E 023°34'0 0.0
2017-Apr-11 21:30N 37°58' E 023°34'0 0.0
2017-Apr-11 21:00N 37°58' E 023°34'0 0.0
2017-Apr-11 20:30N 37°58' E 023°34'0 0.0
2017-Apr-11 20:00N 37°58' E 023°34'0 0.0
2017-Apr-11 19:25N 37°58' E 023°34'0 0.0
2017-Apr-11 19:00N 37°58' E 023°34'0 0.0
2017-Apr-11 18:21N 37°58' E 023°34'0 0.0
2017-Apr-11 13:40N 37°58' E 023°34'0 0.0
2017-Apr-11 13:30N 37°58' E 023°34'0 0.0
2017-Apr-11 13:00N 37°58' E 023°34'0 0.0
2017-Apr-11 12:30N 37°58' E 023°34'0 0.0
2017-Apr-11 12:00N 37°58' E 023°34'0 0.0
2017-Apr-11 11:30N 37°58' E 023°34'0 0.0
2017-Apr-11 11:00N 37°58' E 023°34'0 0.0
2017-Apr-11 10:30N 37°58' E 023°34'0 0.0
2017-Apr-11 10:00N 37°58' E 023°34'0 0.0
2017-Apr-11 09:30N 37°58' E 023°34'0 0.0
2017-Apr-11 09:00N 37°58' E 023°34'0 0.0
2017-Apr-11 08:30N 37°58' E 023°34'0 0.0
2017-Apr-11 08:00N 37°58' E 023°34'0 0.0
2017-Apr-10 09:12N 37°58' E 023°34'0 0.0
2017-Apr-10 09:01N 37°58' E 023°34'0 0.0
2017-Apr-10 08:31N 37°58' E 023°34'0 0.0
2017-Apr-10 08:00N 37°58' E 023°34'0 0.0
2017-Apr-10 07:30N 37°58' E 023°34'0 0.0
2017-Apr-10 07:01N 37°58' E 023°34'0 0.0
2017-Apr-10 06:30N 37°58' E 023°34'0 0.0
2017-Apr-10 06:00N 37°58' E 023°34'0 0.0
2017-Apr-10 05:31N 37°58' E 023°34'0 0.0
2017-Apr-10 05:01N 37°58' E 023°34'0 0.0
2017-Apr-10 04:31N 37°58' E 023°34'0 0.0
2017-Apr-10 04:01N 37°58' E 023°34'0 0.0
2017-Apr-10 03:30N 37°58' E 023°34'0 0.0
2017-Apr-10 03:01N 37°58' E 023°34'0 0.0
2017-Apr-10 02:30N 37°58' E 023°34'0 0.0
2017-Apr-10 02:00N 37°58' E 023°34'0 0.0
2017-Apr-10 01:31N 37°58' E 023°34'0 0.0
2017-Apr-10 01:00N 37°58' E 023°34'0 0.0
2017-Apr-10 00:31N 37°58' E 023°34'0 0.0
2017-Apr-10 00:01N 37°58' E 023°34'0 0.0
2017-Apr-09 23:31N 37°58' E 023°34'0 0.0
2017-Apr-09 23:01N 37°58' E 023°34'0 0.0
2017-Apr-09 22:31N 37°58' E 023°34'0 0.0
2017-Apr-09 22:01N 37°58' E 023°34'0 0.0
2017-Apr-09 21:30N 37°58' E 023°34'0 0.0
2017-Apr-09 21:01N 37°58' E 023°34'0 0.0
2017-Apr-09 20:31N 37°58' E 023°34'0 0.0
2017-Apr-09 20:01N 37°58' E 023°34'0 0.0
2017-Apr-09 19:30N 37°58' E 023°34'0 0.0
2017-Apr-09 19:00N 37°58' E 023°34'0 0.0
2017-Apr-09 18:31N 37°58' E 023°34'0 0.0
2017-Apr-09 18:00N 37°58' E 023°34'0 0.0
2017-Apr-09 17:31N 37°58' E 023°34'0 0.0
2017-Apr-09 17:00N 37°58' E 023°34'0 0.0
2017-Apr-09 16:30N 37°58' E 023°34'0 0.0
2017-Apr-09 13:51N 37°58' E 023°34'0 0.0
2017-Apr-09 13:16N 37°58' E 023°34'0 0.0
2017-Apr-09 13:00N 37°58' E 023°34'0 0.0
2017-Apr-09 12:30N 37°58' E 023°34'0 0.0
2017-Apr-09 12:00N 37°58' E 023°34'0 0.0
2017-Apr-09 11:30N 37°58' E 023°34'0 0.0
2017-Apr-09 11:00N 37°58' E 023°34'0 0.0
2017-Apr-09 10:30N 37°58' E 023°34'0 0.0
2017-Apr-09 10:00N 37°58' E 023°34'0 0.0
2017-Apr-09 09:30N 37°58' E 023°34'0 0.0
2017-Apr-09 09:00N 37°58' E 023°34'0 0.0
2017-Apr-09 08:31N 37°58' E 023°34'0 0.0
2017-Apr-09 08:00N 37°58' E 023°34'0 0.0
2017-Apr-09 07:30N 37°58' E 023°34'0 0.0
2017-Apr-09 07:00N 37°58' E 023°34'0 0.0
2017-Apr-09 06:30N 37°58' E 023°34'0 0.0
2017-Apr-09 06:00N 37°58' E 023°34'0 0.0
2017-Apr-09 05:30N 37°58' E 023°34'0 0.0
2017-Apr-09 05:00N 37°58' E 023°34'  

Dump ship's entire track history